sensor_id;sensor_type;location;lat;lon;timestamp;pressure;altitude;pressure_sealevel;temperature;humidity
62800;BME280;48842;51.046;13.796;2023-01-28T00:01:24;101249.56;;;4.04;68.11
62800;BME280;48842;51.046;13.796;2023-01-28T00:03:49;101234.94;;;4.06;68.43
62800;BME280;48842;51.046;13.796;2023-01-28T00:06:16;101243.50;;;4.03;68.47
62800;BME280;48842;51.046;13.796;2023-01-28T00:08:43;101249.50;;;4.02;68.63
62800;BME280;48842;51.046;13.796;2023-01-28T00:11:11;101240.00;;;4.02;68.72
62800;BME280;48842;51.046;13.796;2023-01-28T00:13:36;101238.22;;;4.01;69.09
62800;BME280;48842;51.046;13.796;2023-01-28T00:16:04;101241.66;;;4.00;69.02
62800;BME280;48842;51.046;13.796;2023-01-28T00:18:31;101236.47;;;4.00;69.15
62800;BME280;48842;51.046;13.796;2023-01-28T00:20:58;101243.56;;;4.05;69.39
62800;BME280;48842;51.046;13.796;2023-01-28T00:23:24;101234.94;;;4.06;69.20
62800;BME280;48842;51.046;13.796;2023-01-28T00:25:49;101241.03;;;4.06;69.48
62800;BME280;48842;51.046;13.796;2023-01-28T00:28:15;101243.84;;;4.11;68.59
62800;BME280;48842;51.046;13.796;2023-01-28T00:30:40;101244.72;;;4.11;68.88
62800;BME280;48842;51.046;13.796;2023-01-28T00:33:05;101240.44;;;4.12;68.83
62800;BME280;48842;51.046;13.796;2023-01-28T00:35:30;101238.50;;;4.08;68.77
62800;BME280;48842;51.046;13.796;2023-01-28T00:37:55;101234.94;;;4.06;68.22
62800;BME280;48842;51.046;13.796;2023-01-28T00:40:21;101235.78;;;4.05;68.75
62800;BME280;48842;51.046;13.796;2023-01-28T00:42:46;101239.13;;;4.02;69.02
62800;BME280;48842;51.046;13.796;2023-01-28T00:45:11;101244.38;;;4.04;68.88
62800;BME280;48842;51.046;13.796;2023-01-28T00:47:36;101243.56;;;4.05;68.98
62800;BME280;48842;51.046;13.796;2023-01-28T00:50:02;101240.97;;;4.05;68.70
62800;BME280;48842;51.046;13.796;2023-01-28T00:52:28;101245.31;;;4.06;68.59
62800;BME280;48842;51.046;13.796;2023-01-28T00:54:54;101246.09;;;4.03;68.37
62800;BME280;48842;51.046;13.796;2023-01-28T00:57:19;101244.38;;;4.04;68.63
62800;BME280;48842;51.046;13.796;2023-01-28T00:59:44;101245.25;;;4.04;68.34
62800;BME280;48842;51.046;13.796;2023-01-28T01:02:09;101241.66;;;4.00;67.94
62800;BME280;48842;51.046;13.796;2023-01-28T01:04:40;101244.16;;;3.99;68.30
62800;BME280;48842;51.046;13.796;2023-01-28T01:07:18;101245.78;;;3.97;67.82
62800;BME280;48842;51.046;13.796;2023-01-28T01:09:44;101237.88;;;3.94;67.46
62800;BME280;48842;51.046;13.796;2023-01-28T01:12:09;101246.38;;;3.91;67.98
62800;BME280;48842;51.046;13.796;2023-01-28T01:14:34;101250.56;;;3.88;68.02
62800;BME280;48842;51.046;13.796;2023-01-28T01:16:59;101244.34;;;3.84;67.52
62800;BME280;48842;51.046;13.796;2023-01-28T01:19:24;101255.41;;;3.80;67.65
62800;BME280;48842;51.046;13.796;2023-01-28T01:21:50;101250.06;;;3.77;67.50
62800;BME280;48842;51.046;13.796;2023-01-28T01:24:15;101254.34;;;3.76;67.32
62800;BME280;48842;51.046;13.796;2023-01-28T01:26:41;101263.03;;;3.77;67.52
62800;BME280;48842;51.046;13.796;2023-01-28T01:29:06;101255.94;;;3.73;66.90
62800;BME280;48842;51.046;13.796;2023-01-28T01:31:33;101250.59;;;3.70;66.86
62800;BME280;48842;51.046;13.796;2023-01-28T01:33:59;101255.66;;;3.66;67.52
62800;BME280;48842;51.046;13.796;2023-01-28T01:36:24;101260.66;;;3.63;67.08
62800;BME280;48842;51.046;13.796;2023-01-28T01:38:53;101266.69;;;3.62;67.20
62800;BME280;48842;51.046;13.796;2023-01-28T01:44:01;101270.88;;;3.60;67.71
62800;BME280;48842;51.046;13.796;2023-01-28T01:46:40;101264.97;;;3.63;67.41
62800;BME280;48842;51.046;13.796;2023-01-28T01:51:39;101266.81;;;3.65;67.33
62800;BME280;48842;51.046;13.796;2023-01-28T01:54:04;101264.22;;;3.65;67.85
62800;BME280;48842;51.046;13.796;2023-01-28T01:56:35;101257.19;;;3.63;67.59
62800;BME280;48842;51.046;13.796;2023-01-28T01:59:03;101260.59;;;3.62;67.48
62800;BME280;48842;51.046;13.796;2023-01-28T02:01:30;101265.56;;;3.57;67.44
62800;BME280;48842;51.046;13.796;2023-01-28T02:04:09;101267.19;;;3.55;67.14
62800;BME280;48842;51.046;13.796;2023-01-28T02:06:38;101260.31;;;3.56;67.04
62800;BME280;48842;51.046;13.796;2023-01-28T02:09:21;101262.03;;;3.55;67.34
62800;BME280;48842;51.046;13.796;2023-01-28T02:11:47;101257.84;;;3.59;67.52
62800;BME280;48842;51.046;13.796;2023-01-28T02:14:12;101249.06;;;3.55;67.29
62800;BME280;48842;51.046;13.796;2023-01-28T02:16:38;101258.59;;;3.56;67.46
62800;BME280;48842;51.046;13.796;2023-01-28T02:19:05;101248.22;;;3.56;67.06
62800;BME280;48842;51.046;13.796;2023-01-28T02:21:56;101247.56;;;3.60;66.69
62800;BME280;48842;51.046;13.796;2023-01-28T02:27:18;101261.72;;;3.67;66.60
62800;BME280;48842;51.046;13.796;2023-01-28T02:32:33;101255.72;;;3.68;66.33
62800;BME280;48842;51.046;13.796;2023-01-28T02:37:45;101258.44;;;3.71;66.59
62800;BME280;48842;51.046;13.796;2023-01-28T02:40:15;101264.66;;;3.75;66.83
62800;BME280;48842;51.046;13.796;2023-01-28T02:42:42;101264.03;;;3.80;66.51
62800;BME280;48842;51.046;13.796;2023-01-28T02:45:16;101269.44;;;3.85;66.38
62800;BME280;48842;51.046;13.796;2023-01-28T02:47:42;101266.91;;;3.87;66.31
62800;BME280;48842;51.046;13.796;2023-01-28T02:50:28;101274.63;;;3.85;66.30
62800;BME280;48842;51.046;13.796;2023-01-28T02:53:08;101272.03;;;3.85;65.87
62800;BME280;48842;51.046;13.796;2023-01-28T02:56:06;101275.59;;;3.87;66.05
62800;BME280;48842;51.046;13.796;2023-01-28T02:58:54;101273.81;;;3.86;65.86
62800;BME280;48842;51.046;13.796;2023-01-28T03:01:41;101281.66;;;3.88;66.24
62800;BME280;48842;51.046;13.796;2023-01-28T03:04:28;101280.78;;;3.87;66.09
62800;BME280;48842;51.046;13.796;2023-01-28T03:06:57;101275.59;;;3.87;66.00
62800;BME280;48842;51.046;13.796;2023-01-28T03:09:25;101283.44;;;3.89;66.11
62800;BME280;48842;51.046;13.796;2023-01-28T03:11:58;101273.00;;;3.87;66.04
62800;BME280;48842;51.046;13.796;2023-01-28T03:14:47;101279.81;;;3.85;66.25
62800;BME280;48842;51.046;13.796;2023-01-28T03:17:47;101280.47;;;3.81;66.15
62800;BME280;48842;51.046;13.796;2023-01-28T03:20:57;101282.84;;;3.76;66.29
62800;BME280;48842;51.046;13.796;2023-01-28T03:24:08;101281.09;;;3.75;66.46
62800;BME280;48842;51.046;13.796;2023-01-28T03:27:01;101280.94;;;3.72;66.14
62800;BME280;48842;51.046;13.796;2023-01-28T03:29:49;101289.53;;;3.71;66.70
62800;BME280;48842;51.046;13.796;2023-01-28T03:32:35;101284.44;;;3.73;66.54
62800;BME280;48842;51.046;13.796;2023-01-28T03:35:21;101293.06;;;3.73;66.32
62800;BME280;48842;51.046;13.796;2023-01-28T03:38:08;101297.38;;;3.73;66.57
62800;BME280;48842;51.046;13.796;2023-01-28T03:40:51;101296.34;;;3.69;66.35
62800;BME280;48842;51.046;13.796;2023-01-28T03:43:18;101299.59;;;3.65;66.04
62800;BME280;48842;51.046;13.796;2023-01-28T03:45:44;101298.56;;;3.61;65.98
62800;BME280;48842;51.046;13.796;2023-01-28T03:48:10;101305.38;;;3.59;66.28
62800;BME280;48842;51.046;13.796;2023-01-28T03:50:35;101300.22;;;3.59;66.43
62800;BME280;48842;51.046;13.796;2023-01-28T03:53:00;101307.97;;;3.59;66.18
62800;BME280;48842;51.046;13.796;2023-01-28T03:55:36;101311.38;;;3.58;66.67
62800;BME280;48842;51.046;13.796;2023-01-28T03:58:02;101310.41;;;3.56;66.10
62800;BME280;48842;51.046;13.796;2023-01-28T04:00:28;101300.72;;;3.52;66.32
62800;BME280;48842;51.046;13.796;2023-01-28T04:02:53;101311.16;;;3.54;66.35
62800;BME280;48842;51.046;13.796;2023-01-28T04:05:18;101304.94;;;3.50;66.21
62800;BME280;48842;51.046;13.796;2023-01-28T04:07:44;101313.53;;;3.49;66.35
62800;BME280;48842;51.046;13.796;2023-01-28T04:10:09;101318.72;;;3.49;65.66
62800;BME280;48842;51.046;13.796;2023-01-28T04:12:35;101326.38;;;3.47;66.20
62800;BME280;48842;51.046;13.796;2023-01-28T04:15:02;101313.22;;;3.43;65.84
62800;BME280;48842;51.046;13.796;2023-01-28T04:17:39;101309.59;;;3.39;66.15
62800;BME280;48842;51.046;13.796;2023-01-28T04:20:04;101311.13;;;3.36;66.30
62800;BME280;48842;51.046;13.796;2023-01-28T04:22:29;101311.06;;;3.34;66.09
62800;BME280;48842;51.046;13.796;2023-01-28T04:24:55;101323.28;;;3.37;66.38
62800;BME280;48842;51.046;13.796;2023-01-28T04:27:20;101315.34;;;3.34;66.11
62800;BME280;48842;51.046;13.796;2023-01-28T04:29:45;101322.19;;;3.31;65.94
62800;BME280;48842;51.046;13.796;2023-01-28T04:32:10;101319.41;;;3.28;65.66
62800;BME280;48842;51.046;13.796;2023-01-28T04:34:36;101331.09;;;3.20;65.76
62800;BME280;48842;51.046;13.796;2023-01-28T04:37:01;101325.63;;;3.14;65.26
62800;BME280;48842;51.046;13.796;2023-01-28T04:39:26;101330.16;;;3.02;65.51
62800;BME280;48842;51.046;13.796;2023-01-28T04:41:51;101338.44;;;2.94;64.99
62800;BME280;48842;51.046;13.796;2023-01-28T04:44:17;101336.19;;;2.84;65.25
62800;BME280;48842;51.046;13.796;2023-01-28T04:46:42;101349.75;;;2.80;65.44
62800;BME280;48842;51.046;13.796;2023-01-28T04:49:07;101352.44;;;2.82;65.49
62800;BME280;48842;51.046;13.796;2023-01-28T04:51:32;101346.38;;;2.81;65.57
62800;BME280;48842;51.046;13.796;2023-01-28T04:53:57;101349.91;;;2.83;65.03
62800;BME280;48842;51.046;13.796;2023-01-28T04:56:23;101352.69;;;2.86;64.75
62800;BME280;48842;51.046;13.796;2023-01-28T04:58:48;101354.69;;;2.92;65.09
62800;BME280;48842;51.046;13.796;2023-01-28T05:01:13;101356.63;;;2.96;65.28
62800;BME280;48842;51.046;13.796;2023-01-28T05:03:38;101361.72;;;2.94;64.68
62800;BME280;48842;51.046;13.796;2023-01-28T05:06:04;101368.22;;;2.86;63.33
62800;BME280;48842;51.046;13.796;2023-01-28T05:08:29;101360.94;;;2.79;64.26
62800;BME280;48842;51.046;13.796;2023-01-28T05:10:54;101369.03;;;2.69;63.82
62800;BME280;48842;51.046;13.796;2023-01-28T05:13:20;101371.44;;;2.66;63.47
62800;BME280;48842;51.046;13.796;2023-01-28T05:15:50;101383.31;;;2.62;63.94
62800;BME280;48842;51.046;13.796;2023-01-28T05:18:15;101376.75;;;2.52;63.04
62800;BME280;48842;51.046;13.796;2023-01-28T05:20:40;101374.56;;;2.43;63.18
62800;BME280;48842;51.046;13.796;2023-01-28T05:23:06;101375.78;;;2.34;62.85
62800;BME280;48842;51.046;13.796;2023-01-28T05:25:31;101383.66;;;2.20;62.31
62800;BME280;48842;51.046;13.796;2023-01-28T05:27:56;101388.50;;;2.14;62.63
62800;BME280;48842;51.046;13.796;2023-01-28T05:30:21;101396.88;;;2.10;62.79
62800;BME280;48842;51.046;13.796;2023-01-28T05:32:47;101396.09;;;2.11;63.17
62800;BME280;48842;51.046;13.796;2023-01-28T05:35:12;101394.38;;;2.12;62.62
62800;BME280;48842;51.046;13.796;2023-01-28T05:37:37;101393.41;;;2.09;62.71
62800;BME280;48842;51.046;13.796;2023-01-28T05:40:03;101394.84;;;2.04;62.32
62800;BME280;48842;51.046;13.796;2023-01-28T05:42:28;101404.22;;;2.02;62.65
62800;BME280;48842;51.046;13.796;2023-01-28T05:44:53;101400.66;;;2.00;62.34
62800;BME280;48842;51.046;13.796;2023-01-28T05:47:19;101404.91;;;2.00;62.41
62800;BME280;48842;51.046;13.796;2023-01-28T05:49:44;101402.25;;;1.98;62.62
62800;BME280;48842;51.046;13.796;2023-01-28T05:52:10;101411.00;;;2.00;62.90
62800;BME280;48842;51.046;13.796;2023-01-28T05:54:35;101412.75;;;2.01;62.77
62800;BME280;48842;51.046;13.796;2023-01-28T05:57:01;101407.59;;;2.01;62.35
62800;BME280;48842;51.046;13.796;2023-01-28T05:59:26;101412.75;;;2.01;62.49
62800;BME280;48842;51.046;13.796;2023-01-28T06:01:51;101417.22;;;2.04;62.89
62800;BME280;48842;51.046;13.796;2023-01-28T06:04:16;101419.63;;;2.01;61.88
62800;BME280;48842;51.046;13.796;2023-01-28T06:06:44;101421.06;;;1.96;61.88
62800;BME280;48842;51.046;13.796;2023-01-28T06:09:09;101418.94;;;1.88;61.72
62800;BME280;48842;51.046;13.796;2023-01-28T06:11:34;101430.69;;;1.83;61.96
62800;BME280;48842;51.046;13.796;2023-01-28T06:14:00;101439.97;;;1.80;61.65
62800;BME280;48842;51.046;13.796;2023-01-28T06:16:25;101445.84;;;1.77;61.71
62800;BME280;48842;51.046;13.796;2023-01-28T06:18:50;101453.25;;;1.71;61.61
62800;BME280;48842;51.046;13.796;2023-01-28T06:21:15;101454.66;;;1.66;61.90
62800;BME280;48842;51.046;13.796;2023-01-28T06:23:41;101457.88;;;1.62;61.84
62800;BME280;48842;51.046;13.796;2023-01-28T06:26:06;101461.88;;;1.56;61.31
62800;BME280;48842;51.046;13.796;2023-01-28T06:28:31;101461.50;;;1.50;61.20
62800;BME280;48842;51.046;13.796;2023-01-28T06:30:57;101470.06;;;1.49;61.92
62800;BME280;48842;51.046;13.796;2023-01-28T06:33:22;101463.81;;;1.46;61.60
62800;BME280;48842;51.046;13.796;2023-01-28T06:35:48;101469.88;;;1.46;61.88
62800;BME280;48842;51.046;13.796;2023-01-28T06:38:13;101481.97;;;1.47;61.63
62800;BME280;48842;51.046;13.796;2023-01-28T06:40:39;101483.59;;;1.45;61.04
62800;BME280;48842;51.046;13.796;2023-01-28T06:43:05;101483.31;;;1.41;61.09
62800;BME280;48842;51.046;13.796;2023-01-28T06:45:31;101478.25;;;1.42;61.26
62800;BME280;48842;51.046;13.796;2023-01-28T06:47:56;101486.97;;;1.44;61.51
62800;BME280;48842;51.046;13.796;2023-01-28T06:50:21;101490.72;;;1.49;61.52
62800;BME280;48842;51.046;13.796;2023-01-28T06:52:47;101491.06;;;1.55;61.58
62800;BME280;48842;51.046;13.796;2023-01-28T06:55:12;101493.03;;;1.60;61.14
62800;BME280;48842;51.046;13.796;2023-01-28T06:57:38;101494.09;;;1.63;61.30
62800;BME280;48842;51.046;13.796;2023-01-28T07:00:09;101494.19;;;1.65;60.77
62800;BME280;48842;51.046;13.796;2023-01-28T07:02:35;101496.88;;;1.66;60.74
62800;BME280;48842;51.046;13.796;2023-01-28T07:05:00;101502.13;;;1.68;60.29
62800;BME280;48842;51.046;13.796;2023-01-28T07:07:26;101507.09;;;1.65;59.62
62800;BME280;48842;51.046;13.796;2023-01-28T07:09:51;101507.09;;;1.65;59.67
62800;BME280;48842;51.046;13.796;2023-01-28T07:12:16;101505.34;;;1.64;59.77
62800;BME280;48842;51.046;13.796;2023-01-28T07:14:42;101500.28;;;1.65;59.88
62800;BME280;48842;51.046;13.796;2023-01-28T07:17:07;101502.31;;;1.71;60.38
62800;BME280;48842;51.046;13.796;2023-01-28T07:19:32;101511.38;;;1.79;60.49
62800;BME280;48842;51.046;13.796;2023-01-28T07:21:57;101512.03;;;1.90;60.82
62800;BME280;48842;51.046;13.796;2023-01-28T07:24:25;101508.28;;;2.00;60.68
62800;BME280;48842;51.046;13.796;2023-01-28T07:26:50;101513.81;;;2.06;60.09
62800;BME280;48842;51.046;13.796;2023-01-28T07:29:15;101515.66;;;2.08;60.14
62800;BME280;48842;51.046;13.796;2023-01-28T07:31:41;101521.75;;;2.09;60.00
62800;BME280;48842;51.046;13.796;2023-01-28T07:34:07;101519.25;;;2.11;60.18
62800;BME280;48842;51.046;13.796;2023-01-28T07:36:33;101518.50;;;2.13;60.17
62800;BME280;48842;51.046;13.796;2023-01-28T07:38:58;101516.75;;;2.12;59.70
62800;BME280;48842;51.046;13.796;2023-01-28T07:41:23;101518.25;;;2.08;59.51
62800;BME280;48842;51.046;13.796;2023-01-28T07:43:49;101514.88;;;2.09;59.80
62800;BME280;48842;51.046;13.796;2023-01-28T07:46:14;101515.75;;;2.10;59.39
62800;BME280;48842;51.046;13.796;2023-01-28T07:48:39;101520.22;;;2.13;59.38
62800;BME280;48842;51.046;13.796;2023-01-28T07:51:04;101527.25;;;2.15;59.59
62800;BME280;48842;51.046;13.796;2023-01-28T07:53:31;101524.06;;;2.19;59.50
62800;BME280;48842;51.046;13.796;2023-01-28T07:56:00;101523.50;;;2.25;58.73
62800;BME280;48842;51.046;13.796;2023-01-28T07:58:26;101520.09;;;2.26;58.36
62800;BME280;48842;51.046;13.796;2023-01-28T08:00:55;101522.94;;;2.31;58.27
62800;BME280;48842;51.046;13.796;2023-01-28T08:03:21;101517.97;;;2.34;58.08
62800;BME280;48842;51.046;13.796;2023-01-28T08:05:48;101522.94;;;2.31;57.31
62800;BME280;48842;51.046;13.796;2023-01-28T08:08:14;101526.19;;;2.26;57.69
62800;BME280;48842;51.046;13.796;2023-01-28T08:10:40;101525.34;;;2.27;57.96
62800;BME280;48842;51.046;13.796;2023-01-28T08:13:06;101531.53;;;2.30;57.64
62800;BME280;48842;51.046;13.796;2023-01-28T08:15:32;101533.13;;;2.27;57.10
62800;BME280;48842;51.046;13.796;2023-01-28T08:17:58;101534.91;;;2.29;57.22
62800;BME280;48842;51.046;13.796;2023-01-28T08:20:27;101535.88;;;2.31;56.98
62800;BME280;48842;51.046;13.796;2023-01-28T08:23:03;101527.22;;;2.30;57.31
62800;BME280;48842;51.046;13.796;2023-01-28T08:25:32;101530.06;;;2.35;57.06
62800;BME280;48842;51.046;13.796;2023-01-28T08:27:57;101534.00;;;2.43;57.25
62800;BME280;48842;51.046;13.796;2023-01-28T08:30:23;101529.00;;;2.46;57.05
62800;BME280;48842;51.046;13.796;2023-01-28T08:32:48;101532.53;;;2.48;57.06
62800;BME280;48842;51.046;13.796;2023-01-28T08:35:13;101531.13;;;2.53;56.83
62800;BME280;48842;51.046;13.796;2023-01-28T08:37:38;101529.66;;;2.58;56.57
62800;BME280;48842;51.046;13.796;2023-01-28T08:40:04;101535.13;;;2.63;56.40
62800;BME280;48842;51.046;13.796;2023-01-28T08:42:30;101535.19;;;2.65;56.64
62800;BME280;48842;51.046;13.796;2023-01-28T08:44:55;101538.84;;;2.68;56.74
62800;BME280;48842;51.046;13.796;2023-01-28T08:47:20;101543.47;;;2.74;56.52
62800;BME280;48842;51.046;13.796;2023-01-28T08:49:45;101540.97;;;2.75;55.87
62800;BME280;48842;51.046;13.796;2023-01-28T08:52:11;101548.63;;;2.74;55.84
62800;BME280;48842;51.046;13.796;2023-01-28T08:54:36;101549.25;;;2.70;55.60
62800;BME280;48842;51.046;13.796;2023-01-28T08:57:02;101550.88;;;2.68;56.14
62800;BME280;48842;51.046;13.796;2023-01-28T08:59:27;101559.44;;;2.67;55.63
62800;BME280;48842;51.046;13.796;2023-01-28T09:01:52;101555.91;;;2.65;56.10
62800;BME280;48842;51.046;13.796;2023-01-28T09:04:17;101559.38;;;2.65;55.94
62800;BME280;48842;51.046;13.796;2023-01-28T09:06:43;101557.03;;;2.70;55.75
62800;BME280;48842;51.046;13.796;2023-01-28T09:09:08;101558.91;;;2.72;55.18
62800;BME280;48842;51.046;13.796;2023-01-28T09:11:33;101555.34;;;2.70;55.70
62800;BME280;48842;51.046;13.796;2023-01-28T09:13:59;101558.03;;;2.72;55.89
62800;BME280;48842;51.046;13.796;2023-01-28T09:16:24;101563.38;;;2.75;55.57
62800;BME280;48842;51.046;13.796;2023-01-28T09:18:50;101560.94;;;2.78;55.57
62800;BME280;48842;51.046;13.796;2023-01-28T09:21:16;101567.25;;;2.83;55.73
62800;BME280;48842;51.046;13.796;2023-01-28T09:23:41;101567.31;;;2.85;55.64
62800;BME280;48842;51.046;13.796;2023-01-28T09:26:07;101563.22;;;2.88;55.19
62800;BME280;48842;51.046;13.796;2023-01-28T09:28:33;101563.41;;;2.91;55.53
62800;BME280;48842;51.046;13.796;2023-01-28T09:31:04;101568.66;;;2.93;55.61
62800;BME280;48842;51.046;13.796;2023-01-28T09:33:30;101577.50;;;2.96;55.61
62800;BME280;48842;51.046;13.796;2023-01-28T09:35:58;101573.13;;;2.95;54.93
62800;BME280;48842;51.046;13.796;2023-01-28T09:38:24;101569.72;;;2.96;55.35
62800;BME280;48842;51.046;13.796;2023-01-28T09:40:49;101569.97;;;3.01;55.64
62800;BME280;48842;51.046;13.796;2023-01-28T09:46:13;101567.63;;;3.06;55.09
62800;BME280;48842;51.046;13.796;2023-01-28T09:48:49;101562.53;;;3.07;54.80
62800;BME280;48842;51.046;13.796;2023-01-28T09:51:26;101561.81;;;3.10;54.71
62800;BME280;48842;51.046;13.796;2023-01-28T09:53:54;101566.91;;;3.08;54.56
62800;BME280;48842;51.046;13.796;2023-01-28T09:56:25;101572.09;;;3.08;54.72
62800;BME280;48842;51.046;13.796;2023-01-28T09:58:53;101576.28;;;3.06;54.28
62800;BME280;48842;51.046;13.796;2023-01-28T10:01:49;101575.22;;;3.03;54.09
62800;BME280;48842;51.046;13.796;2023-01-28T10:04:42;101573.28;;;2.99;52.90
62800;BME280;48842;51.046;13.796;2023-01-28T10:07:36;101576.50;;;2.94;52.86
62800;BME280;48842;51.046;13.796;2023-01-28T10:10:10;101573.59;;;2.88;53.11
62800;BME280;48842;51.046;13.796;2023-01-28T10:12:47;101582.13;;;2.87;52.70
62800;BME280;48842;51.046;13.796;2023-01-28T10:15:50;101583.75;;;2.85;52.56
62800;BME280;48842;51.046;13.796;2023-01-28T10:18:27;101587.22;;;2.86;53.35
62800;BME280;48842;51.046;13.796;2023-01-28T10:20:59;101590.72;;;2.86;53.81
62800;BME280;48842;51.046;13.796;2023-01-28T10:23:38;101580.25;;;2.85;53.04
62800;BME280;48842;51.046;13.796;2023-01-28T10:26:15;101583.69;;;2.84;53.00
62800;BME280;48842;51.046;13.796;2023-01-28T10:28:46;101583.84;;;2.87;53.53
62800;BME280;48842;51.046;13.796;2023-01-28T10:31:13;101590.81;;;2.88;52.79
62800;BME280;48842;51.046;13.796;2023-01-28T10:33:39;101600.88;;;2.83;52.36
62800;BME280;48842;51.046;13.796;2023-01-28T10:36:08;101593.69;;;2.77;52.46
62800;BME280;48842;51.046;13.796;2023-01-28T10:38:34;101590.81;;;2.73;52.40
62800;BME280;48842;51.046;13.796;2023-01-28T10:41:01;101601.09;;;2.71;51.91
62800;BME280;48842;51.046;13.796;2023-01-28T10:43:30;101599.13;;;2.67;51.96
62800;BME280;48842;51.046;13.796;2023-01-28T10:46:04;101600.84;;;2.67;51.25
62800;BME280;48842;51.046;13.796;2023-01-28T10:48:36;101601.72;;;2.67;51.80
62800;BME280;48842;51.046;13.796;2023-01-28T10:51:03;101613.22;;;2.72;52.16
62800;BME280;48842;51.046;13.796;2023-01-28T10:53:42;101612.69;;;2.78;51.97
62800;BME280;48842;51.046;13.796;2023-01-28T10:56:15;101612.84;;;2.81;51.51
62800;BME280;48842;51.046;13.796;2023-01-28T11:01:24;101610.28;;;2.81;51.23
62800;BME280;48842;51.046;13.796;2023-01-28T11:03:54;101604.13;;;2.79;51.21
62800;BME280;48842;51.046;13.796;2023-01-28T11:06:24;101610.91;;;2.77;51.76
62800;BME280;48842;51.046;13.796;2023-01-28T11:08:49;101607.44;;;2.76;51.70
62800;BME280;48842;51.046;13.796;2023-01-28T11:11:15;101598.75;;;2.76;51.79
62800;BME280;48842;51.046;13.796;2023-01-28T11:13:48;101604.03;;;2.77;51.91
62800;BME280;48842;51.046;13.796;2023-01-28T11:16:17;101603.13;;;2.77;51.68
62800;BME280;48842;51.046;13.796;2023-01-28T11:18:52;101603.59;;;2.70;51.27
62800;BME280;48842;51.046;13.796;2023-01-28T11:23:55;101609.22;;;2.62;51.10
62800;BME280;48842;51.046;13.796;2023-01-28T11:26:24;101605.84;;;2.64;51.04
62800;BME280;48842;51.046;13.796;2023-01-28T11:28:50;101603.16;;;2.62;50.77
62800;BME280;48842;51.046;13.796;2023-01-28T11:31:18;101598.63;;;2.58;51.33
62800;BME280;48842;51.046;13.796;2023-01-28T11:33:51;101595.31;;;2.60;51.49
62800;BME280;48842;51.046;13.796;2023-01-28T11:36:20;101608.41;;;2.64;51.54
62800;BME280;48842;51.046;13.796;2023-01-28T11:39:13;101601.63;;;2.66;51.16
62800;BME280;48842;51.046;13.796;2023-01-28T11:41:40;101588.06;;;2.70;51.67
62800;BME280;48842;51.046;13.796;2023-01-28T11:44:17;101586.41;;;2.70;51.15
62800;BME280;48842;51.046;13.796;2023-01-28T11:46:52;101588.91;;;2.69;51.09
62800;BME280;48842;51.046;13.796;2023-01-28T11:49:37;101579.97;;;2.64;51.48
62800;BME280;48842;51.046;13.796;2023-01-28T11:53:01;101580.13;;;2.67;51.34
62800;BME280;48842;51.046;13.796;2023-01-28T11:55:19;101577.97;;;2.74;51.25
62800;BME280;48842;51.046;13.796;2023-01-28T11:58:12;101575.75;;;2.81;51.87
62800;BME280;48842;51.046;13.796;2023-01-28T12:00:56;101581.81;;;2.81;51.04
62800;BME280;48842;51.046;13.796;2023-01-28T12:03:43;101580.19;;;2.83;51.04
62800;BME280;48842;51.046;13.796;2023-01-28T12:06:34;101572.63;;;2.86;51.03
62800;BME280;48842;51.046;13.796;2023-01-28T12:09:16;101569.13;;;2.86;51.38
62800;BME280;48842;51.046;13.796;2023-01-28T12:23:19;101578.50;;;2.84;50.79
62800;BME280;48842;51.046;13.796;2023-01-28T12:26:14;101567.09;;;2.80;50.09
62800;BME280;48842;51.046;13.796;2023-01-28T12:29:05;101566.19;;;2.79;51.10
62800;BME280;48842;51.046;13.796;2023-01-28T12:32:01;101558.53;;;2.81;50.10
62800;BME280;48842;51.046;13.796;2023-01-28T12:34:45;101557.66;;;2.81;50.35
62800;BME280;48842;51.046;13.796;2023-01-28T12:42:40;101557.66;;;2.81;50.46
62800;BME280;48842;51.046;13.796;2023-01-28T12:45:26;101556.72;;;2.80;49.73
62800;BME280;48842;51.046;13.796;2023-01-28T12:48:08;101552.38;;;2.79;50.13
62800;BME280;48842;51.046;13.796;2023-01-28T12:50:38;101556.66;;;2.78;50.32
62800;BME280;48842;51.046;13.796;2023-01-28T12:53:21;101553.91;;;2.75;50.41
62800;BME280;48842;51.046;13.796;2023-01-28T12:55:58;101560.78;;;2.75;50.70
62800;BME280;48842;51.046;13.796;2023-01-28T12:58:38;101552.69;;;2.69;50.19
62800;BME280;48842;51.046;13.796;2023-01-28T13:01:10;101560.00;;;2.61;49.86
62800;BME280;48842;51.046;13.796;2023-01-28T13:03:48;101551.97;;;2.56;49.81
62800;BME280;48842;51.046;13.796;2023-01-28T13:06:23;101554.66;;;2.58;50.54
62800;BME280;48842;51.046;13.796;2023-01-28T13:08:55;101545.31;;;2.60;49.66
62800;BME280;48842;51.046;13.796;2023-01-28T13:11:22;101551.28;;;2.59;49.64
62800;BME280;48842;51.046;13.796;2023-01-28T13:13:48;101551.97;;;2.56;50.03
62800;BME280;48842;51.046;13.796;2023-01-28T13:16:15;101557.06;;;2.55;50.34
62800;BME280;48842;51.046;13.796;2023-01-28T13:21:28;101557.69;;;2.51;49.96
62800;BME280;48842;51.046;13.796;2023-01-28T13:24:05;101558.41;;;2.48;49.59
62800;BME280;48842;51.046;13.796;2023-01-28T13:26:54;101560.09;;;2.48;49.47
62800;BME280;48842;51.046;13.796;2023-01-28T13:31:49;101557.16;;;2.56;50.23
62800;BME280;48842;51.046;13.796;2023-01-28T13:34:40;101565.88;;;2.58;49.45
62800;BME280;48842;51.046;13.796;2023-01-28T13:37:29;101557.16;;;2.56;49.62
62800;BME280;48842;51.046;13.796;2023-01-28T13:40:01;101552.16;;;2.59;50.25
62800;BME280;48842;51.046;13.796;2023-01-28T13:42:29;101565.16;;;2.61;49.88
62800;BME280;48842;51.046;13.796;2023-01-28T13:44:55;101567.84;;;2.62;50.25
62800;BME280;48842;51.046;13.796;2023-01-28T13:47:33;101565.41;;;2.66;50.57
62800;BME280;48842;51.046;13.796;2023-01-28T13:50:05;101557.19;;;2.73;50.16